sensor_id;sensor_type;location;lat;lon;timestamp;P1;durP1;ratioP1;P2;durP2;ratioP2
351;SDS011;164;50.784;6.496;2023-06-10T00:01:38;9.55;;;9.05;;
351;SDS011;164;50.784;6.496;2023-06-10T00:04:05;10.68;;;10.07;;
351;SDS011;164;50.784;6.496;2023-06-10T00:06:34;9.55;;;9.05;;
351;SDS011;164;50.784;6.496;2023-06-10T00:09:02;11.20;;;10.60;;
351;SDS011;164;50.784;6.496;2023-06-10T00:11:31;11.40;;;10.80;;
351;SDS011;164;50.784;6.496;2023-06-10T00:13:58;11.02;;;10.43;;
351;SDS011;164;50.784;6.496;2023-06-10T00:16:25;13.43;;;10.43;;
351;SDS011;164;50.784;6.496;2023-06-10T00:18:53;10.20;;;9.70;;
351;SDS011;164;50.784;6.496;2023-06-10T00:21:25;10.90;;;10.30;;
351;SDS011;164;50.784;6.496;2023-06-10T00:23:54;11.00;;;10.35;;
351;SDS011;164;50.784;6.496;2023-06-10T00:26:21;9.60;;;9.10;;
351;SDS011;164;50.784;6.496;2023-06-10T00:28:49;11.00;;;10.40;;
351;SDS011;164;50.784;6.496;2023-06-10T00:31:17;11.55;;;10.95;;
351;SDS011;164;50.784;6.496;2023-06-10T00:33:44;11.55;;;10.95;;
351;SDS011;164;50.784;6.496;2023-06-10T00:36:12;10.75;;;10.15;;
351;SDS011;164;50.784;6.496;2023-06-10T00:38:39;12.40;;;10.70;;
351;SDS011;164;50.784;6.496;2023-06-10T00:41:08;10.98;;;10.38;;
351;SDS011;164;50.784;6.496;2023-06-10T00:43:35;11.18;;;10.57;;
351;SDS011;164;50.784;6.496;2023-06-10T00:46:02;11.40;;;10.80;;
351;SDS011;164;50.784;6.496;2023-06-10T00:48:29;10.68;;;10.07;;
351;SDS011;164;50.784;6.496;2023-06-10T00:50:56;11.68;;;11.07;;
351;SDS011;164;50.784;6.496;2023-06-10T00:53:24;9.95;;;9.45;;
351;SDS011;164;50.784;6.496;2023-06-10T00:55:51;10.68;;;10.07;;
351;SDS011;164;50.784;6.496;2023-06-10T00:58:20;11.50;;;10.90;;
351;SDS011;164;50.784;6.496;2023-06-10T01:00:48;10.32;;;9.82;;
351;SDS011;164;50.784;6.496;2023-06-10T01:03:16;10.98;;;10.38;;
351;SDS011;164;50.784;6.496;2023-06-10T01:05:43;10.07;;;9.57;;
351;SDS011;164;50.784;6.496;2023-06-10T01:08:15;10.75;;;10.15;;
351;SDS011;164;50.784;6.496;2023-06-10T01:10:47;10.20;;;9.70;;
351;SDS011;164;50.784;6.496;2023-06-10T01:13:17;11.73;;;11.13;;
351;SDS011;164;50.784;6.496;2023-06-10T01:15:50;12.50;;;11.88;;
351;SDS011;164;50.784;6.496;2023-06-10T01:18:17;11.27;;;10.68;;
351;SDS011;164;50.784;6.496;2023-06-10T01:20:45;11.48;;;10.88;;
351;SDS011;164;50.784;6.496;2023-06-10T01:23:15;12.10;;;11.50;;
351;SDS011;164;50.784;6.496;2023-06-10T01:25:43;12.70;;;12.02;;
351;SDS011;164;50.784;6.496;2023-06-10T01:28:12;12.05;;;11.45;;
351;SDS011;164;50.784;6.496;2023-06-10T01:30:43;11.57;;;10.98;;
351;SDS011;164;50.784;6.496;2023-06-10T01:33:14;11.70;;;11.10;;
351;SDS011;164;50.784;6.496;2023-06-10T01:35:43;11.73;;;11.13;;
351;SDS011;164;50.784;6.496;2023-06-10T01:38:11;10.63;;;10.05;;
351;SDS011;164;50.784;6.496;2023-06-10T01:40:40;11.15;;;10.55;;
351;SDS011;164;50.784;6.496;2023-06-10T01:43:08;11.60;;;11.00;;
351;SDS011;164;50.784;6.496;2023-06-10T01:45:35;10.93;;;10.32;;
351;SDS011;164;50.784;6.496;2023-06-10T01:48:02;11.57;;;10.98;;
351;SDS011;164;50.784;6.496;2023-06-10T01:50:30;11.45;;;10.85;;
351;SDS011;164;50.784;6.496;2023-06-10T01:52:57;11.73;;;11.13;;
351;SDS011;164;50.784;6.496;2023-06-10T01:55:25;11.40;;;10.80;;
351;SDS011;164;50.784;6.496;2023-06-10T01:57:54;11.98;;;11.38;;
351;SDS011;164;50.784;6.496;2023-06-10T02:00:21;11.32;;;10.73;;
351;SDS011;164;50.784;6.496;2023-06-10T02:02:48;11.73;;;11.13;;
351;SDS011;164;50.784;6.496;2023-06-10T02:05:15;11.52;;;10.93;;
351;SDS011;164;50.784;6.496;2023-06-10T02:07:43;12.73;;;12.05;;
351;SDS011;164;50.784;6.496;2023-06-10T02:10:11;12.13;;;11.52;;
351;SDS011;164;50.784;6.496;2023-06-10T02:12:38;11.98;;;11.38;;
351;SDS011;164;50.784;6.496;2023-06-10T02:15:06;11.88;;;11.27;;
351;SDS011;164;50.784;6.496;2023-06-10T02:17:33;12.57;;;11.93;;
351;SDS011;164;50.784;6.496;2023-06-10T02:20:01;11.63;;;11.02;;
351;SDS011;164;50.784;6.496;2023-06-10T02:22:35;12.10;;;11.50;;
351;SDS011;164;50.784;6.496;2023-06-10T02:25:03;12.07;;;11.48;;
351;SDS011;164;50.784;6.496;2023-06-10T02:27:30;11.00;;;10.40;;
351;SDS011;164;50.784;6.496;2023-06-10T02:29:58;12.73;;;11.00;;
351;SDS011;164;50.784;6.496;2023-06-10T02:32:27;11.98;;;11.38;;
351;SDS011;164;50.784;6.496;2023-06-10T02:34:54;12.32;;;11.73;;
351;SDS011;164;50.784;6.496;2023-06-10T02:37:22;11.52;;;10.93;;
351;SDS011;164;50.784;6.496;2023-06-10T02:39:50;11.00;;;10.40;;
351;SDS011;164;50.784;6.496;2023-06-10T02:42:17;11.88;;;11.27;;
351;SDS011;164;50.784;6.496;2023-06-10T02:44:45;12.50;;;11.90;;
351;SDS011;164;50.784;6.496;2023-06-10T02:47:12;12.43;;;11.80;;
351;SDS011;164;50.784;6.496;2023-06-10T02:49:41;12.82;;;12.13;;
351;SDS011;164;50.784;6.496;2023-06-10T02:52:08;12.00;;;11.40;;
351;SDS011;164;50.784;6.496;2023-06-10T02:54:36;12.40;;;11.80;;
351;SDS011;164;50.784;6.496;2023-06-10T02:57:04;11.40;;;10.80;;
351;SDS011;164;50.784;6.496;2023-06-10T02:59:32;11.70;;;11.10;;
351;SDS011;164;50.784;6.496;2023-06-10T03:02:00;11.93;;;11.32;;
351;SDS011;164;50.784;6.496;2023-06-10T03:04:27;11.95;;;11.35;;
351;SDS011;164;50.784;6.496;2023-06-10T03:06:57;12.20;;;11.60;;
351;SDS011;164;50.784;6.496;2023-06-10T03:09:25;13.00;;;12.30;;
351;SDS011;164;50.784;6.496;2023-06-10T03:11:52;12.23;;;11.63;;
351;SDS011;164;50.784;6.496;2023-06-10T03:14:19;12.05;;;11.45;;
351;SDS011;164;50.784;6.496;2023-06-10T03:16:47;12.23;;;11.63;;
351;SDS011;164;50.784;6.496;2023-06-10T03:19:14;12.57;;;11.93;;
351;SDS011;164;50.784;6.496;2023-06-10T03:21:43;11.38;;;10.77;;
351;SDS011;164;50.784;6.496;2023-06-10T03:24:12;11.35;;;10.75;;
351;SDS011;164;50.784;6.496;2023-06-10T03:26:40;12.38;;;11.77;;
351;SDS011;164;50.784;6.496;2023-06-10T03:29:07;12.57;;;11.93;;
351;SDS011;164;50.784;6.496;2023-06-10T03:31:35;12.02;;;11.43;;
351;SDS011;164;50.784;6.496;2023-06-10T03:34:03;11.40;;;10.80;;
351;SDS011;164;50.784;6.496;2023-06-10T03:36:31;12.18;;;11.57;;
351;SDS011;164;50.784;6.496;2023-06-10T03:38:58;11.80;;;11.20;;
351;SDS011;164;50.784;6.496;2023-06-10T03:41:27;12.90;;;12.20;;
351;SDS011;164;50.784;6.496;2023-06-10T03:43:55;12.77;;;12.07;;
351;SDS011;164;50.784;6.496;2023-06-10T03:46:22;12.00;;;11.40;;
351;SDS011;164;50.784;6.496;2023-06-10T03:48:49;11.60;;;11.00;;
351;SDS011;164;50.784;6.496;2023-06-10T03:51:17;11.70;;;11.10;;
351;SDS011;164;50.784;6.496;2023-06-10T03:53:44;11.90;;;11.30;;
351;SDS011;164;50.784;6.496;2023-06-10T03:56:11;12.35;;;11.75;;
351;SDS011;164;50.784;6.496;2023-06-10T03:58:40;13.27;;;12.57;;
351;SDS011;164;50.784;6.496;2023-06-10T04:01:07;12.38;;;11.77;;
351;SDS011;164;50.784;6.496;2023-06-10T04:03:34;12.13;;;11.52;;
351;SDS011;164;50.784;6.496;2023-06-10T04:06:01;12.07;;;11.48;;
351;SDS011;164;50.784;6.496;2023-06-10T04:08:29;11.88;;;11.27;;
351;SDS011;164;50.784;6.496;2023-06-10T04:10:58;11.00;;;10.40;;
351;SDS011;164;50.784;6.496;2023-06-10T04:13:25;11.90;;;11.30;;
351;SDS011;164;50.784;6.496;2023-06-10T04:15:54;12.10;;;11.50;;
351;SDS011;164;50.784;6.496;2023-06-10T04:18:21;12.85;;;12.15;;
351;SDS011;164;50.784;6.496;2023-06-10T04:20:48;11.82;;;11.23;;
351;SDS011;164;50.784;6.496;2023-06-10T04:23:16;12.23;;;11.60;;
351;SDS011;164;50.784;6.496;2023-06-10T04:25:43;11.95;;;11.35;;
351;SDS011;164;50.784;6.496;2023-06-10T04:28:11;10.75;;;10.15;;
351;SDS011;164;50.784;6.496;2023-06-10T04:30:38;12.25;;;11.65;;
351;SDS011;164;50.784;6.496;2023-06-10T04:33:08;11.98;;;11.38;;
351;SDS011;164;50.784;6.496;2023-06-10T04:35:36;12.10;;;11.50;;
351;SDS011;164;50.784;6.496;2023-06-10T04:38:03;11.73;;;11.13;;
351;SDS011;164;50.784;6.496;2023-06-10T04:40:31;11.30;;;10.70;;
351;SDS011;164;50.784;6.496;2023-06-10T04:42:58;12.43;;;11.80;;
351;SDS011;164;50.784;6.496;2023-06-10T04:45:25;12.13;;;11.52;;
351;SDS011;164;50.784;6.496;2023-06-10T04:47:53;11.35;;;10.75;;
351;SDS011;164;50.784;6.496;2023-06-10T04:50:24;12.43;;;11.80;;
351;SDS011;164;50.784;6.496;2023-06-10T04:52:51;12.63;;;11.98;;
351;SDS011;164;50.784;6.496;2023-06-10T04:55:19;12.10;;;11.50;;
351;SDS011;164;50.784;6.496;2023-06-10T04:57:46;12.05;;;11.45;;
351;SDS011;164;50.784;6.496;2023-06-10T05:00:14;11.30;;;10.70;;
351;SDS011;164;50.784;6.496;2023-06-10T05:02:41;11.30;;;10.70;;
351;SDS011;164;50.784;6.496;2023-06-10T05:05:09;11.00;;;10.40;;
351;SDS011;164;50.784;6.496;2023-06-10T05:07:38;10.73;;;10.13;;
351;SDS011;164;50.784;6.496;2023-06-10T05:10:06;11.55;;;10.98;;
351;SDS011;164;50.784;6.496;2023-06-10T05:12:34;11.40;;;10.80;;
351;SDS011;164;50.784;6.496;2023-06-10T05:15:01;11.15;;;10.55;;
351;SDS011;164;50.784;6.496;2023-06-10T05:17:28;13.32;;;12.63;;
351;SDS011;164;50.784;6.496;2023-06-10T05:19:55;11.30;;;10.70;;
351;SDS011;164;50.784;6.496;2023-06-10T05:22:23;11.32;;;10.73;;
351;SDS011;164;50.784;6.496;2023-06-10T05:24:51;11.15;;;10.55;;
351;SDS011;164;50.784;6.496;2023-06-10T05:27:18;10.82;;;10.23;;
351;SDS011;164;50.784;6.496;2023-06-10T05:29:46;11.40;;;10.80;;
351;SDS011;164;50.784;6.496;2023-06-10T05:32:13;11.75;;;11.15;;
351;SDS011;164;50.784;6.496;2023-06-10T05:34:40;11.85;;;11.25;;
351;SDS011;164;50.784;6.496;2023-06-10T05:37:07;12.23;;;11.63;;
351;SDS011;164;50.784;6.496;2023-06-10T05:39:35;11.68;;;11.07;;
351;SDS011;164;50.784;6.496;2023-06-10T05:42:06;13.35;;;12.65;;
351;SDS011;164;50.784;6.496;2023-06-10T05:44:33;13.85;;;13.15;;
351;SDS011;164;50.784;6.496;2023-06-10T05:47:01;11.50;;;10.90;;
351;SDS011;164;50.784;6.496;2023-06-10T05:49:28;10.88;;;10.27;;
351;SDS011;164;50.784;6.496;2023-06-10T05:51:55;10.57;;;10.00;;
351;SDS011;164;50.784;6.496;2023-06-10T05:54:24;11.15;;;10.55;;
351;SDS011;164;50.784;6.496;2023-06-10T05:56:51;10.98;;;10.38;;
351;SDS011;164;50.784;6.496;2023-06-10T05:59:20;9.50;;;9.00;;
351;SDS011;164;50.784;6.496;2023-06-10T06:01:48;10.73;;;10.13;;
351;SDS011;164;50.784;6.496;2023-06-10T06:04:15;10.32;;;9.80;;
351;SDS011;164;50.784;6.496;2023-06-10T06:06:44;9.70;;;9.20;;
351;SDS011;164;50.784;6.496;2023-06-10T06:09:11;11.10;;;10.50;;
351;SDS011;164;50.784;6.496;2023-06-10T06:11:38;10.95;;;10.35;;
351;SDS011;164;50.784;6.496;2023-06-10T06:14:06;10.60;;;10.02;;
351;SDS011;164;50.784;6.496;2023-06-10T06:16:34;13.40;;;12.70;;
351;SDS011;164;50.784;6.496;2023-06-10T06:19:01;13.73;;;13.02;;
351;SDS011;164;50.784;6.496;2023-06-10T06:21:29;12.45;;;11.85;;
351;SDS011;164;50.784;6.496;2023-06-10T06:23:56;12.23;;;11.07;;
351;SDS011;164;50.784;6.496;2023-06-10T06:26:23;11.40;;;10.80;;
351;SDS011;164;50.784;6.496;2023-06-10T06:28:51;11.95;;;11.35;;
351;SDS011;164;50.784;6.496;2023-06-10T06:31:19;11.05;;;10.45;;
351;SDS011;164;50.784;6.496;2023-06-10T06:33:48;11.75;;;11.15;;
351;SDS011;164;50.784;6.496;2023-06-10T06:36:15;11.85;;;11.25;;
351;SDS011;164;50.784;6.496;2023-06-10T06:38:42;13.63;;;12.93;;
351;SDS011;164;50.784;6.496;2023-06-10T06:41:09;11.95;;;11.35;;
351;SDS011;164;50.784;6.496;2023-06-10T06:43:37;11.85;;;11.23;;
351;SDS011;164;50.784;6.496;2023-06-10T06:46:04;11.23;;;10.63;;
351;SDS011;164;50.784;6.496;2023-06-10T06:48:31;15.68;;;10.98;;
351;SDS011;164;50.784;6.496;2023-06-10T06:51:03;9.98;;;9.48;;
351;SDS011;164;50.784;6.496;2023-06-10T06:53:30;10.57;;;10.00;;
351;SDS011;164;50.784;6.496;2023-06-10T06:55:57;9.65;;;9.15;;
351;SDS011;164;50.784;6.496;2023-06-10T06:58:25;10.95;;;10.35;;
351;SDS011;164;50.784;6.496;2023-06-10T07:00:52;11.43;;;10.82;;
351;SDS011;164;50.784;6.496;2023-06-10T07:03:19;10.05;;;9.15;;
351;SDS011;164;50.784;6.496;2023-06-10T07:05:46;10.50;;;9.95;;
351;SDS011;164;50.784;6.496;2023-06-10T07:08:15;10.13;;;9.63;;
351;SDS011;164;50.784;6.496;2023-06-10T07:10:42;10.32;;;9.82;;
351;SDS011;164;50.784;6.496;2023-06-10T07:13:10;10.30;;;9.80;;
351;SDS011;164;50.784;6.496;2023-06-10T07:15:38;10.05;;;9.55;;
351;SDS011;164;50.784;6.496;2023-06-10T07:18:05;9.75;;;9.25;;
351;SDS011;164;50.784;6.496;2023-06-10T07:20:32;10.30;;;9.80;;
351;SDS011;164;50.784;6.496;2023-06-10T07:23:00;10.30;;;9.80;;
351;SDS011;164;50.784;6.496;2023-06-10T07:25:28;8.75;;;8.25;;
351;SDS011;164;50.784;6.496;2023-06-10T07:27:55;8.65;;;8.15;;
351;SDS011;164;50.784;6.496;2023-06-10T07:30:22;8.52;;;7.90;;
351;SDS011;164;50.784;6.496;2023-06-10T07:32:50;8.32;;;7.90;;
351;SDS011;164;50.784;6.496;2023-06-10T07:35:17;10.45;;;8.48;;
351;SDS011;164;50.784;6.496;2023-06-10T07:37:45;8.18;;;7.78;;
351;SDS011;164;50.784;6.496;2023-06-10T07:40:12;9.13;;;8.05;;
351;SDS011;164;50.784;6.496;2023-06-10T07:42:41;8.07;;;7.68;;
351;SDS011;164;50.784;6.496;2023-06-10T07:45:08;8.75;;;8.10;;
351;SDS011;164;50.784;6.496;2023-06-10T07:47:35;9.05;;;8.20;;
351;SDS011;164;50.784;6.496;2023-06-10T07:50:03;9.27;;;8.20;;
351;SDS011;164;50.784;6.496;2023-06-10T07:52:30;7.55;;;7.15;;
351;SDS011;164;50.784;6.496;2023-06-10T07:54:57;10.60;;;8.38;;
351;SDS011;164;50.784;6.496;2023-06-10T07:57:25;8.15;;;7.75;;
351;SDS011;164;50.784;6.496;2023-06-10T07:59:53;8.52;;;8.02;;
351;SDS011;164;50.784;6.496;2023-06-10T08:02:22;8.82;;;8.35;;
351;SDS011;164;50.784;6.496;2023-06-10T08:04:49;7.95;;;7.55;;
351;SDS011;164;50.784;6.496;2023-06-10T08:07:17;8.40;;;7.95;;
351;SDS011;164;50.784;6.496;2023-06-10T08:09:44;7.97;;;7.57;;
351;SDS011;164;50.784;6.496;2023-06-10T08:12:11;9.88;;;8.27;;
351;SDS011;164;50.784;6.496;2023-06-10T08:14:38;8.35;;;7.70;;
351;SDS011;164;50.784;6.496;2023-06-10T08:17:07;11.00;;;10.40;;
351;SDS011;164;50.784;6.496;2023-06-10T08:19:35;8.52;;;8.02;;
351;SDS011;164;50.784;6.496;2023-06-10T08:22:02;7.63;;;7.23;;
351;SDS011;164;50.784;6.496;2023-06-10T08:24:29;9.18;;;8.68;;
351;SDS011;164;50.784;6.496;2023-06-10T08:26:56;9.50;;;9.00;;
351;SDS011;164;50.784;6.496;2023-06-10T08:29:24;7.90;;;7.50;;
351;SDS011;164;50.784;6.496;2023-06-10T08:31:52;8.23;;;7.80;;
351;SDS011;164;50.784;6.496;2023-06-10T08:34:20;8.67;;;8.17;;
351;SDS011;164;50.784;6.496;2023-06-10T08:36:47;9.47;;;8.97;;
351;SDS011;164;50.784;6.496;2023-06-10T08:39:18;8.77;;;8.27;;
351;SDS011;164;50.784;6.496;2023-06-10T08:41:48;8.60;;;8.10;;
351;SDS011;164;50.784;6.496;2023-06-10T08:44:21;8.07;;;7.67;;
351;SDS011;164;50.784;6.496;2023-06-10T08:46:49;7.90;;;7.50;;
351;SDS011;164;50.784;6.496;2023-06-10T08:49:17;6.87;;;6.47;;
351;SDS011;164;50.784;6.496;2023-06-10T08:51:47;9.10;;;8.60;;
351;SDS011;164;50.784;6.496;2023-06-10T08:54:17;7.83;;;7.43;;
351;SDS011;164;50.784;6.496;2023-06-10T08:56:44;9.17;;;8.60;;
351;SDS011;164;50.784;6.496;2023-06-10T08:59:13;9.47;;;8.97;;
351;SDS011;164;50.784;6.496;2023-06-10T09:01:41;9.07;;;8.57;;
351;SDS011;164;50.784;6.496;2023-06-10T09:04:09;11.37;;;8.33;;
351;SDS011;164;50.784;6.496;2023-06-10T09:06:36;8.63;;;7.50;;
351;SDS011;164;50.784;6.496;2023-06-10T09:09:06;7.90;;;7.37;;
351;SDS011;164;50.784;6.496;2023-06-10T09:11:33;8.17;;;7.77;;
351;SDS011;164;50.784;6.496;2023-06-10T09:14:00;7.70;;;7.30;;
351;SDS011;164;50.784;6.496;2023-06-10T09:16:28;8.37;;;7.93;;
351;SDS011;164;50.784;6.496;2023-06-10T09:18:55;7.90;;;7.50;;
351;SDS011;164;50.784;6.496;2023-06-10T09:21:24;7.93;;;7.53;;
351;SDS011;164;50.784;6.496;2023-06-10T09:23:51;8.30;;;7.90;;
351;SDS011;164;50.784;6.496;2023-06-10T09:26:20;8.90;;;8.40;;
351;SDS011;164;50.784;6.496;2023-06-10T09:28:47;8.70;;;8.20;;
351;SDS011;164;50.784;6.496;2023-06-10T09:31:15;7.83;;;7.43;;
351;SDS011;164;50.784;6.496;2023-06-10T09:33:44;8.00;;;7.60;;
351;SDS011;164;50.784;6.496;2023-06-10T09:36:11;8.17;;;7.77;;
351;SDS011;164;50.784;6.496;2023-06-10T09:38:49;7.90;;;7.50;;
351;SDS011;164;50.784;6.496;2023-06-10T09:41:16;8.00;;;7.60;;
351;SDS011;164;50.784;6.496;2023-06-10T09:43:45;8.53;;;8.07;;
351;SDS011;164;50.784;6.496;2023-06-10T09:46:14;7.97;;;7.57;;
351;SDS011;164;50.784;6.496;2023-06-10T09:48:42;8.37;;;7.93;;
351;SDS011;164;50.784;6.496;2023-06-10T09:51:10;8.90;;;8.40;;
351;SDS011;164;50.784;6.496;2023-06-10T09:53:38;8.50;;;8.00;;
351;SDS011;164;50.784;6.496;2023-06-10T09:56:05;7.40;;;7.00;;
351;SDS011;164;50.784;6.496;2023-06-10T09:58:35;7.40;;;7.00;;
351;SDS011;164;50.784;6.496;2023-06-10T10:01:07;7.73;;;7.33;;
351;SDS011;164;50.784;6.496;2023-06-10T10:03:42;8.20;;;7.10;;
351;SDS011;164;50.784;6.496;2023-06-10T10:06:11;7.43;;;7.03;;
351;SDS011;164;50.784;6.496;2023-06-10T10:08:39;7.20;;;6.80;;
351;SDS011;164;50.784;6.496;2023-06-10T10:11:06;7.60;;;7.20;;
351;SDS011;164;50.784;6.496;2023-06-10T10:13:33;8.93;;;8.43;;
351;SDS011;164;50.784;6.496;2023-06-10T10:16:06;7.90;;;7.50;;
351;SDS011;164;50.784;6.496;2023-06-10T10:18:37;8.03;;;7.23;;
351;SDS011;164;50.784;6.496;2023-06-10T10:21:06;6.50;;;6.10;;
351;SDS011;164;50.784;6.496;2023-06-10T10:23:36;7.50;;;7.10;;
351;SDS011;164;50.784;6.496;2023-06-10T10:26:05;8.00;;;7.60;;
351;SDS011;164;50.784;6.496;2023-06-10T10:28:34;7.60;;;7.20;;
351;SDS011;164;50.784;6.496;2023-06-10T10:31:06;8.47;;;7.30;;
351;SDS011;164;50.784;6.496;2023-06-10T10:33:40;6.53;;;6.13;;
351;SDS011;164;50.784;6.496;2023-06-10T10:36:08;6.97;;;6.57;;
351;SDS011;164;50.784;6.496;2023-06-10T10:38:36;7.57;;;7.17;;
351;SDS011;164;50.784;6.496;2023-06-10T10:41:03;9.70;;;9.20;;
351;SDS011;164;50.784;6.496;2023-06-10T10:43:30;7.83;;;7.43;;
351;SDS011;164;50.784;6.496;2023-06-10T10:45:58;10.03;;;7.17;;
351;SDS011;164;50.784;6.496;2023-06-10T10:48:26;7.70;;;7.30;;
351;SDS011;164;50.784;6.496;2023-06-10T10:50:57;7.97;;;7.57;;
351;SDS011;164;50.784;6.496;2023-06-10T10:53:25;7.40;;;7.00;;
351;SDS011;164;50.784;6.496;2023-06-10T10:55:58;7.53;;;7.13;;
351;SDS011;164;50.784;6.496;2023-06-10T10:58:26;8.07;;;6.60;;
351;SDS011;164;50.784;6.496;2023-06-10T11:00:53;7.00;;;6.60;;
351;SDS011;164;50.784;6.496;2023-06-10T11:03:21;6.90;;;6.50;;
351;SDS011;164;50.784;6.496;2023-06-10T11:05:48;6.80;;;6.40;;
351;SDS011;164;50.784;6.496;2023-06-10T11:11:17;6.63;;;6.23;;
351;SDS011;164;50.784;6.496;2023-06-10T11:13:57;7.50;;;7.10;;
351;SDS011;164;50.784;6.496;2023-06-10T11:16:26;8.93;;;6.73;;
351;SDS011;164;50.784;6.496;2023-06-10T11:18:54;9.30;;;7.40;;
351;SDS011;164;50.784;6.496;2023-06-10T11:21:22;6.80;;;6.40;;
351;SDS011;164;50.784;6.496;2023-06-10T11:23:52;7.80;;;7.40;;
351;SDS011;164;50.784;6.496;2023-06-10T11:26:29;8.03;;;7.10;;
351;SDS011;164;50.784;6.496;2023-06-10T11:29:01;7.03;;;6.63;;
351;SDS011;164;50.784;6.496;2023-06-10T11:31:29;7.47;;;7.07;;
351;SDS011;164;50.784;6.496;2023-06-10T11:33:58;9.83;;;7.27;;
351;SDS011;164;50.784;6.496;2023-06-10T11:36:25;7.27;;;6.87;;
351;SDS011;164;50.784;6.496;2023-06-10T11:38:55;7.20;;;6.80;;
351;SDS011;164;50.784;6.496;2023-06-10T11:41:23;7.90;;;6.83;;
351;SDS011;164;50.784;6.496;2023-06-10T11:43:51;7.20;;;6.80;;
351;SDS011;164;50.784;6.496;2023-06-10T11:46:19;7.87;;;7.47;;
351;SDS011;164;50.784;6.496;2023-06-10T11:48:49;7.20;;;6.80;;
351;SDS011;164;50.784;6.496;2023-06-10T11:51:16;6.63;;;6.23;;
351;SDS011;164;50.784;6.496;2023-06-10T11:53:44;8.67;;;8.17;;
351;SDS011;164;50.784;6.496;2023-06-10T11:56:12;8.00;;;7.60;;
351;SDS011;164;50.784;6.496;2023-06-10T11:58:40;6.90;;;6.50;;
351;SDS011;164;50.784;6.496;2023-06-10T12:01:10;6.27;;;5.93;;
351;SDS011;164;50.784;6.496;2023-06-10T12:03:37;7.93;;;6.40;;
351;SDS011;164;50.784;6.496;2023-06-10T12:06:05;6.77;;;6.37;;
351;SDS011;164;50.784;6.496;2023-06-10T12:08:33;6.73;;;6.33;;
351;SDS011;164;50.784;6.496;2023-06-10T12:11:00;7.37;;;6.57;;
351;SDS011;164;50.784;6.496;2023-06-10T12:13:29;7.00;;;6.60;;
351;SDS011;164;50.784;6.496;2023-06-10T12:16:05;6.90;;;6.50;;
351;SDS011;164;50.784;6.496;2023-06-10T12:18:33;6.13;;;5.83;;
351;SDS011;164;50.784;6.496;2023-06-10T12:21:00;6.73;;;6.33;;
351;SDS011;164;50.784;6.496;2023-06-10T12:23:29;7.03;;;6.63;;
351;SDS011;164;50.784;6.496;2023-06-10T12:25:57;6.67;;;6.27;;
351;SDS011;164;50.784;6.496;2023-06-10T12:28:24;6.17;;;5.83;;
351;SDS011;164;50.784;6.496;2023-06-10T12:30:59;6.90;;;6.50;;
351;SDS011;164;50.784;6.496;2023-06-10T12:33:32;7.00;;;6.60;;
351;SDS011;164;50.784;6.496;2023-06-10T12:36:00;7.90;;;7.50;;
351;SDS011;164;50.784;6.496;2023-06-10T12:38:27;7.97;;;6.70;;
351;SDS011;164;50.784;6.496;2023-06-10T12:40:54;6.67;;;5.90;;
351;SDS011;164;50.784;6.496;2023-06-10T12:43:30;9.37;;;5.63;;
351;SDS011;164;50.784;6.496;2023-06-10T12:46:09;5.97;;;5.67;;
351;SDS011;164;50.784;6.496;2023-06-10T12:48:36;5.70;;;5.40;;
351;SDS011;164;50.784;6.496;2023-06-10T12:51:16;6.43;;;6.03;;
351;SDS011;164;50.784;6.496;2023-06-10T12:53:44;6.60;;;6.20;;
351;SDS011;164;50.784;6.496;2023-06-10T12:56:11;7.60;;;6.03;;
351;SDS011;164;50.784;6.496;2023-06-10T12:58:38;5.97;;;5.67;;
351;SDS011;164;50.784;6.496;2023-06-10T13:01:05;6.07;;;5.77;;
351;SDS011;164;50.784;6.496;2023-06-10T13:03:34;5.40;;;5.13;;
351;SDS011;164;50.784;6.496;2023-06-10T13:06:03;5.93;;;5.63;;
351;SDS011;164;50.784;6.496;2023-06-10T13:08:31;7.40;;;5.77;;
351;SDS011;164;50.784;6.496;2023-06-10T13:10:58;6.60;;;6.20;;
351;SDS011;164;50.784;6.496;2023-06-10T13:13:26;6.33;;;5.90;;
351;SDS011;164;50.784;6.496;2023-06-10T13:15:54;6.27;;;5.93;;
351;SDS011;164;50.784;6.496;2023-06-10T13:18:21;6.90;;;5.30;;
351;SDS011;164;50.784;6.496;2023-06-10T13:20:49;10.03;;;6.67;;
351;SDS011;164;50.784;6.496;2023-06-10T13:23:16;5.73;;;5.40;;
351;SDS011;164;50.784;6.496;2023-06-10T13:25:44;6.50;;;6.10;;
351;SDS011;164;50.784;6.496;2023-06-10T13:28:11;7.50;;;5.60;;
351;SDS011;164;50.784;6.496;2023-06-10T13:30:38;5.80;;;5.50;;
351;SDS011;164;50.784;6.496;2023-06-10T13:33:05;5.27;;;4.97;;
351;SDS011;164;50.784;6.496;2023-06-10T13:35:33;5.53;;;5.23;;
351;SDS011;164;50.784;6.496;2023-06-10T13:38:01;6.20;;;5.90;;
351;SDS011;164;50.784;6.496;2023-06-10T13:40:29;7.93;;;6.10;;
351;SDS011;164;50.784;6.496;2023-06-10T13:42:56;5.77;;;5.47;;
351;SDS011;164;50.784;6.496;2023-06-10T13:45:23;6.33;;;5.97;;
351;SDS011;164;50.784;6.496;2023-06-10T13:47:50;7.00;;;5.80;;
351;SDS011;164;50.784;6.496;2023-06-10T13:50:18;9.97;;;5.83;;
351;SDS011;164;50.784;6.496;2023-06-10T13:52:45;5.70;;;5.40;;
351;SDS011;164;50.784;6.496;2023-06-10T13:55:14;4.80;;;4.43;;
351;SDS011;164;50.784;6.496;2023-06-10T13:57:42;5.57;;;5.27;;
351;SDS011;164;50.784;6.496;2023-06-10T14:00:10;5.30;;;5.00;;
351;SDS011;164;50.784;6.496;2023-06-10T14:02:37;7.77;;;5.50;;
351;SDS011;164;50.784;6.496;2023-06-10T14:05:05;6.27;;;5.93;;
351;SDS011;164;50.784;6.496;2023-06-10T14:07:33;5.50;;;5.20;;
351;SDS011;164;50.784;6.496;2023-06-10T14:10:02;5.60;;;5.30;;
351;SDS011;164;50.784;6.496;2023-06-10T14:12:31;5.57;;;5.30;;
351;SDS011;164;50.784;6.496;2023-06-10T14:14:58;5.37;;;5.07;;
351;SDS011;164;50.784;6.496;2023-06-10T14:17:25;5.57;;;5.27;;
351;SDS011;164;50.784;6.496;2023-06-10T14:19:52;5.80;;;5.50;;
351;SDS011;164;50.784;6.496;2023-06-10T14:22:19;5.57;;;5.27;;
351;SDS011;164;50.784;6.496;2023-06-10T14:24:46;4.67;;;4.37;;
351;SDS011;164;50.784;6.496;2023-06-10T14:27:14;6.70;;;5.20;;
351;SDS011;164;50.784;6.496;2023-06-10T14:29:42;5.00;;;4.70;;
351;SDS011;164;50.784;6.496;2023-06-10T14:32:10;4.77;;;4.47;;
351;SDS011;164;50.784;6.496;2023-06-10T14:34:37;10.70;;;4.00;;
351;SDS011;164;50.784;6.496;2023-06-10T14:37:06;5.30;;;5.00;;
351;SDS011;164;50.784;6.496;2023-06-10T14:39:33;5.77;;;4.00;;
351;SDS011;164;50.784;6.496;2023-06-10T14:42:01;4.47;;;4.17;;
351;SDS011;164;50.784;6.496;2023-06-10T14:44:28;5.27;;;4.97;;
351;SDS011;164;50.784;6.496;2023-06-10T14:46:57;5.50;;;4.40;;
351;SDS011;164;50.784;6.496;2023-06-10T14:49:24;4.73;;;4.43;;
351;SDS011;164;50.784;6.496;2023-06-10T14:51:52;4.93;;;4.33;;
351;SDS011;164;50.784;6.496;2023-06-10T14:54:19;4.07;;;3.87;;
351;SDS011;164;50.784;6.496;2023-06-10T14:56:46;5.07;;;4.77;;
351;SDS011;164;50.784;6.496;2023-06-10T14:59:14;6.30;;;3.90;;
351;SDS011;164;50.784;6.496;2023-06-10T15:01:41;6.33;;;4.30;;
351;SDS011;164;50.784;6.496;2023-06-10T15:04:09;3.63;;;3.43;;
351;SDS011;164;50.784;6.496;2023-06-10T15:06:36;5.00;;;4.30;;
351;SDS011;164;50.784;6.496;2023-06-10T15:09:04;3.80;;;3.60;;
351;SDS011;164;50.784;6.496;2023-06-10T15:11:31;4.53;;;4.00;;
351;SDS011;164;50.784;6.496;2023-06-10T15:13:58;3.53;;;3.33;;
351;SDS011;164;50.784;6.496;2023-06-10T15:16:25;4.87;;;4.57;;
351;SDS011;164;50.784;6.496;2023-06-10T15:18:52;4.07;;;3.87;;
351;SDS011;164;50.784;6.496;2023-06-10T15:21:21;4.50;;;3.97;;
351;SDS011;164;50.784;6.496;2023-06-10T15:23:48;4.03;;;3.83;;
351;SDS011;164;50.784;6.496;2023-06-10T15:26:16;3.73;;;3.53;;
351;SDS011;164;50.784;6.496;2023-06-10T15:28:43;3.83;;;3.63;;
351;SDS011;164;50.784;6.496;2023-06-10T15:31:10;3.67;;;3.47;;
351;SDS011;164;50.784;6.496;2023-06-10T15:33:37;4.77;;;3.67;;
351;SDS011;164;50.784;6.496;2023-06-10T15:36:05;3.93;;;3.73;;
351;SDS011;164;50.784;6.496;2023-06-10T15:38:34;3.70;;;3.50;;
351;SDS011;164;50.784;6.496;2023-06-10T15:41:01;4.60;;;4.03;;